Time;durP1;ratioP1;P1;durP2;ratioP2;P2;SDS_P1;SDS_P2;PMS_P1;PMS_P2;Temp;Humidity;BMP_temperature;BMP_pressure;BME280_temperature;BME280_humidity;BME280_pressure;Samples;Min_cycle;Max_cycle;Signal;HPM_P1;HPM_P2
2023/02/12 00:02:20;;;;;;;31.20;22.08;;;;;;;6.15;100.00;102492.56;5035626;28;20223;-75
2023/02/12 00:04:48;;;;;;;29.10;21.45;;;;;;;6.14;100.00;102496.13;5034329;28;20228;-75
2023/02/12 00:07:15;;;;;;;30.13;21.75;;;;;;;6.15;100.00;102497.91;5035187;28;20235;-74
2023/02/12 00:09:41;;;;;;;31.75;21.60;;;;;;;6.10;100.00;102489.88;5039786;28;20289;-75
2023/02/12 00:12:08;;;;;;;34.10;22.30;;;;;;;6.08;100.00;102501.44;5039021;28;20207;-74
2023/02/12 00:14:37;;;;;;;34.92;22.50;;;;;;;5.98;100.00;102490.69;5036994;28;20597;-74
2023/02/12 00:17:03;;;;;;;36.33;23.90;;;;;;;6.02;100.00;102497.84;5037330;28;20377;-74
2023/02/12 00:19:31;;;;;;;37.33;23.58;;;;;;;6.03;100.00;102488.91;5035069;28;20246;-75
2023/02/12 00:21:58;;;;;;;34.35;23.65;;;;;;;6.00;100.00;102496.94;5035506;28;20288;-74
2023/02/12 00:24:25;;;;;;;40.00;24.10;;;;;;;5.97;100.00;102486.22;5034152;28;20674;-75
2023/02/12 00:26:52;;;;;;;37.30;24.52;;;;;;;5.99;100.00;102492.50;5034801;28;20223;-74
2023/02/12 00:29:19;;;;;;;42.25;24.00;;;;;;;6.04;100.00;102492.53;5034528;28;20215;-74
2023/02/12 00:31:45;;;;;;;31.40;22.45;;;;;;;6.03;100.00;102486.25;5037039;28;20215;-74
2023/02/12 00:34:12;;;;;;;30.80;21.85;;;;;;;6.04;100.00;102489.84;5040235;28;20207;-74
2023/02/12 00:36:40;;;;;;;34.05;22.75;;;;;;;6.01;100.00;102490.69;5040227;28;20417;-74
2023/02/12 00:39:06;;;;;;;39.28;24.65;;;;;;;6.03;100.00;102494.28;5038507;28;20291;-74
2023/02/12 00:41:33;;;;;;;40.58;23.58;;;;;;;5.97;100.00;102491.56;5039312;28;20681;-75
2023/02/12 00:44:00;;;;;;;38.92;24.85;;;;;;;6.01;100.00;102492.47;5038808;28;20577;-74
2023/02/12 00:46:26;;;;;;;37.28;24.70;;;;;;;6.03;100.00;102488.03;5039480;28;20203;-74
2023/02/12 00:48:53;;;;;;;54.15;34.60;;;;;;;6.03;100.00;102493.38;5043410;28;20307;-74
2023/02/12 00:51:20;;;;;;;38.80;27.90;;;;;;;6.07;100.00;102492.53;5041867;28;20650;-74
2023/02/12 00:53:48;;;;;;;38.42;24.58;;;;;;;6.07;100.00;102486.28;5036923;28;20204;-74
2023/02/12 00:56:15;;;;;;;34.88;23.52;;;;;;;6.04;100.00;102496.09;5036874;28;20220;-75
2023/02/12 00:58:41;;;;;;;34.90;24.08;;;;;;;6.03;100.00;102490.72;5037289;28;20279;-75
2023/02/12 01:01:08;;;;;;;32.83;23.15;;;;;;;5.99;100.00;102491.56;5039065;28;20261;-75
2023/02/12 01:03:34;;;;;;;33.78;21.88;;;;;;;6.00;100.00;102499.63;5037098;28;20288;-74
2023/02/12 01:06:01;;;;;;;34.45;22.10;;;;;;;5.96;100.00;102497.78;5037167;28;20201;-73
2023/02/12 01:08:29;;;;;;;36.00;24.00;;;;;;;5.93;100.00;102489.72;5070994;22;20260;-68
2023/02/12 01:10:59;;;;;;;35.75;23.90;;;;;;;5.99;100.00;102491.56;5056122;28;20598;-68
2023/02/12 01:13:27;;;;;;;35.00;23.15;;;;;;;5.98;100.00;102490.69;5042923;28;20208;-67
2023/02/12 01:16:05;;;;;;;33.97;23.77;;;;;;;5.83;100.00;102493.19;5037759;28;20255;-68
2023/02/12 01:18:32;;;;;;;39.53;24.65;;;;;;;5.85;100.00;102488.75;5036590;28;20782;-69
2023/02/12 01:20:58;;;;;;;34.83;23.23;;;;;;;5.77;100.00;102490.50;5036548;28;20219;-69
2023/02/12 01:23:25;;;;;;;39.55;24.83;;;;;;;5.79;100.00;102486.06;5034913;28;20230;-69
2023/02/12 01:25:52;;;;;;;36.78;24.15;;;;;;;5.77;100.00;102487.84;5035002;28;20690;-68
2023/02/12 01:28:20;;;;;;;41.00;24.08;;;;;;;5.74;100.00;102495.81;5044545;28;20295;-70
2023/02/12 01:30:46;;;;;;;35.53;23.67;;;;;;;5.76;100.00;102504.75;5039978;28;20201;-68
2023/02/12 01:33:13;;;;;;;35.50;24.60;;;;;;;5.79;100.00;102500.31;5036414;28;20201;-70
2023/02/12 01:35:39;;;;;;;36.53;23.80;;;;;;;5.70;100.00;102488.63;5036966;28;20232;-68
2023/02/12 01:38:06;;;;;;;40.83;24.35;;;;;;;5.80;100.00;102493.19;5038364;28;20275;-69
2023/02/12 01:40:32;;;;;;;36.22;23.73;;;;;;;5.76;100.00;102497.59;5037106;28;20209;-69
2023/02/12 01:43:01;;;;;;;38.75;24.85;;;;;;;5.74;100.00;102503.81;5037296;28;20557;-69
2023/02/12 01:45:51;;;;;;;34.22;23.15;;;;;;;5.75;100.00;102495.81;5039967;28;20717;-68
2023/02/12 01:48:20;;;;;;;40.88;24.27;;;;;;;5.72;100.00;102494.91;5034345;28;20222;-69
2023/02/12 01:50:49;;;;;;;38.05;25.13;;;;;;;5.72;100.00;102497.56;5034120;28;20211;-69
2023/02/12 01:53:19;;;;;;;39.53;24.20;;;;;;;5.67;100.00;102488.63;5033791;28;20250;-68
2023/02/12 01:55:50;;;;;;;37.67;24.50;;;;;;;5.70;100.00;102494.91;5033825;28;20228;-68
2023/02/12 01:58:17;;;;;;;38.17;24.77;;;;;;;5.72;100.00;102500.25;5034219;28;20232;-69
2023/02/12 02:00:44;;;;;;;34.75;24.60;;;;;;;5.75;100.00;102498.50;5034046;28;20209;-69
2023/02/12 02:03:13;;;;;;;36.00;24.65;;;;;;;5.79;100.00;102494.97;5033728;28;20279;-69
2023/02/12 02:05:45;;;;;;;35.35;23.70;;;;;;;5.78;100.00;102492.28;5034767;28;20211;-69
2023/02/12 02:08:13;;;;;;;41.50;25.92;;;;;;;5.85;100.00;102494.13;5033658;28;20241;-70
2023/02/12 02:10:39;;;;;;;38.60;24.92;;;;;;;5.87;100.00;102499.47;5033910;28;20630;-68
2023/02/12 02:15:57;;;;;;;36.63;25.48;;;;;;;5.77;100.00;102493.19;5035523;28;20242;-67
2023/02/12 02:18:33;;;;;;;36.67;24.23;;;;;;;5.83;100.00;102488.78;5034745;28;20224;-69
2023/02/12 02:21:19;;;;;;;40.33;26.33;;;;;;;5.99;100.00;102483.53;5034294;28;20196;-68
2023/02/12 02:23:59;;;;;;;38.58;25.33;;;;;;;5.91;100.00;102486.16;5034413;28;20254;-69
2023/02/12 02:26:50;;;;;;;41.00;26.25;;;;;;;5.85;100.00;102500.34;5034721;28;20195;-69
2023/02/12 02:29:45;;;;;;;36.95;25.25;;;;;;;5.82;100.00;102494.09;5041699;28;20223;-69
2023/02/12 02:32:19;;;;;;;33.80;24.02;;;;;;;5.89;100.00;102493.25;5042959;28;20218;-69
2023/02/12 02:34:52;;;;;;;32.63;24.08;;;;;;;5.91;100.00;102478.13;5040142;28;20212;-69
2023/02/12 02:37:26;;;;;;;46.30;26.85;;;;;;;5.88;100.00;102482.53;5040503;28;20233;-69
2023/02/12 02:39:59;;;;;;;40.58;25.88;;;;;;;5.74;100.00;102488.66;5038657;28;20204;-69
2023/02/12 02:42:32;;;;;;;40.25;25.25;;;;;;;5.77;100.00;102480.69;5034109;28;20689;-68
2023/02/12 02:45:05;;;;;;;36.55;25.38;;;;;;;5.77;100.00;102483.38;5033623;28;20197;-68
2023/02/12 02:47:38;;;;;;;38.00;23.92;;;;;;;5.70;100.00;102475.28;5033155;28;20519;-69
2023/02/12 02:50:11;;;;;;;36.40;25.27;;;;;;;5.71;100.00;102472.63;5033697;28;20199;-69
2023/02/12 02:52:43;;;;;;;37.42;24.13;;;;;;;5.76;100.00;102478.00;5032567;28;20204;-68
2023/02/12 02:55:14;;;;;;;39.42;25.05;;;;;;;5.81;100.00;102479.84;5032612;28;20682;-69
2023/02/12 02:57:45;;;;;;;35.88;25.60;;;;;;;5.81;100.00;102469.16;5033187;28;20718;-68
2023/02/12 03:00:17;;;;;;;36.03;23.60;;;;;;;5.85;100.00;102470.94;5034335;28;20200;-69
2023/02/12 03:02:50;;;;;;;35.25;25.35;;;;;;;5.85;100.00;102470.03;5034122;28;20645;-68
2023/02/12 03:05:23;;;;;;;40.45;25.00;;;;;;;5.85;100.00;102476.28;5033558;28;20195;-68
2023/02/12 03:07:55;;;;;;;38.40;27.48;;;;;;;5.88;100.00;102478.09;5033286;28;20264;-70
2023/02/12 03:10:27;;;;;;;38.38;24.95;;;;;;;5.87;100.00;102473.63;5034710;28;20585;-69
2023/02/12 03:12:57;;;;;;;43.88;26.83;;;;;;;5.92;100.00;102479.91;5018351;28;20562;-69
2023/02/12 03:15:31;;;;;;;38.47;24.45;;;;;;;5.95;100.00;102477.28;5015064;28;20276;-67
2023/02/12 03:18:02;;;;;;;41.25;26.67;;;;;;;5.95;100.00;102477.28;5025279;28;20228;-68
2023/02/12 03:20:33;;;;;;;39.03;25.20;;;;;;;5.96;100.00;102471.03;5016310;28;20192;-68
2023/02/12 03:23:04;;;;;;;40.22;26.38;;;;;;;5.95;100.00;102476.41;5037462;28;20202;-68
2023/02/12 03:25:35;;;;;;;36.58;24.73;;;;;;;5.96;100.00;102489.78;5040462;28;20667;-68
2023/02/12 03:28:07;;;;;;;37.50;24.05;;;;;;;5.96;100.00;102495.13;5047476;28;20234;-69
2023/02/12 03:30:44;;;;;;;34.83;22.98;;;;;;;5.95;100.00;102487.09;5043358;28;20195;-69
2023/02/12 03:33:20;;;;;;;38.15;26.67;;;;;;;5.87;100.00;102489.66;5036141;28;20207;-69
2023/02/12 03:35:55;;;;;;;40.63;26.55;;;;;;;5.87;100.00;102489.66;5033249;28;20278;-68
2023/02/12 03:38:33;;;;;;;39.08;25.80;;;;;;;5.93;100.00;102483.50;5032873;28;20594;-69
2023/02/12 03:41:05;;;;;;;38.33;25.20;;;;;;;5.93;100.00;102483.50;5032491;28;20211;-69
2023/02/12 03:43:36;;;;;;;67.72;42.42;;;;;;;5.93;100.00;102479.03;5032939;28;20207;-71
2023/02/12 03:46:13;;;;;;;40.53;27.15;;;;;;;5.90;100.00;102479.03;5032595;28;20188;-69
2023/02/12 03:48:47;;;;;;;42.72;24.83;;;;;;;5.90;100.00;102480.78;5032372;28;20640;-69
2023/02/12 03:51:21;;;;;;;43.88;27.15;;;;;;;5.82;100.00;102488.75;5032600;28;20192;-69
2023/02/12 03:53:49;;;;;;;39.85;27.65;;;;;;;5.85;100.00;102495.00;5033042;28;20613;-69
2023/02/12 03:56:22;;;;;;;43.53;27.40;;;;;;;5.84;100.00;102497.69;5035322;28;20220;-69
2023/02/12 03:58:48;;;;;;;42.90;26.85;;;;;;;5.90;100.00;102483.44;5038314;28;20227;-69
2023/02/12 04:01:15;;;;;;;38.50;26.05;;;;;;;5.89;100.00;102497.72;5037182;28;20599;-69
2023/02/12 04:03:43;;;;;;;40.30;25.75;;;;;;;5.93;100.00;102500.44;5033450;28;20212;-69
2023/02/12 04:06:21;;;;;;;39.47;25.70;;;;;;;5.83;100.00;102496.78;5034030;28;20223;-69
2023/02/12 04:08:48;;;;;;;41.88;26.80;;;;;;;5.75;100.00;102500.28;5036086;28;20232;-68
2023/02/12 04:11:25;;;;;;;43.75;27.48;;;;;;;5.76;100.00;102502.94;5036700;28;20220;-69
2023/02/12 04:14:05;;;;;;;41.90;27.75;;;;;;;5.78;100.00;102497.63;5036286;28;20204;-69
2023/02/12 04:16:39;;;;;;;41.33;26.55;;;;;;;5.81;100.00;102506.59;5036062;28;20214;-69
2023/02/12 04:19:10;;;;;;;44.42;27.70;;;;;;;5.85;100.00;102513.72;5035769;28;20204;-70
2023/02/12 04:21:47;;;;;;;47.40;28.13;;;;;;;5.90;100.00;102505.75;5036979;28;20208;-69
2023/02/12 04:24:19;;;;;;;42.70;27.67;;;;;;;5.84;100.00;102509.28;5037113;28;20192;-68
2023/02/12 04:26:52;;;;;;;41.22;26.52;;;;;;;5.84;100.00;102511.06;5036132;28;20204;-69
2023/02/12 04:29:27;;;;;;;41.97;28.02;;;;;;;5.84;100.00;102516.41;5035441;28;20209;-69
2023/02/12 04:31:58;;;;;;;40.88;26.35;;;;;;;5.89;100.00;102521.78;5036265;28;20203;-68
2023/02/12 04:34:33;;;;;;;40.20;24.92;;;;;;;5.90;100.00;102524.50;5037898;28;20200;-68
2023/02/12 04:37:06;;;;;;;40.25;26.27;;;;;;;5.89;100.00;102522.69;5037527;28;20236;-68
2023/02/12 04:39:36;;;;;;;37.95;25.35;;;;;;;5.88;100.00;102528.00;5036001;28;20193;-68
2023/02/12 04:42:04;;;;;;;43.25;25.95;;;;;;;5.93;100.00;102526.28;5035862;28;20188;-69
2023/02/12 04:44:34;;;;;;;39.88;25.55;;;;;;;5.90;100.00;102524.50;5035884;28;20201;-70
2023/02/12 04:47:01;;;;;;;39.35;27.00;;;;;;;5.92;100.00;102528.03;5035312;28;20220;-69
2023/02/12 04:49:29;;;;;;;45.08;28.33;;;;;;;5.90;100.00;102526.25;5035246;28;20212;-69
2023/02/12 04:51:56;;;;;;;43.70;27.65;;;;;;;5.88;100.00;102526.25;5035417;28;20212;-69
2023/02/12 04:54:23;;;;;;;37.17;25.88;;;;;;;5.90;100.00;102531.59;5043172;28;20669;-69
2023/02/12 04:56:50;;;;;;;40.25;26.38;;;;;;;5.96;100.00;102532.56;5034921;28;20232;-69
2023/02/12 04:59:17;;;;;;;38.85;24.77;;;;;;;5.95;100.00;102537.94;5035742;28;20208;-69
2023/02/12 05:01:44;;;;;;;40.25;26.10;;;;;;;5.97;100.00;102537.06;5034928;28;20677;-67
2023/02/12 05:04:13;;;;;;;40.42;27.30;;;;;;;5.87;100.00;102536.94;5035323;28;20204;-69
2023/02/12 05:06:42;;;;;;;42.28;26.42;;;;;;;5.81;100.00;102536.00;5036291;28;20204;-69
2023/02/12 05:09:13;;;;;;;42.42;26.42;;;;;;;5.70;100.00;102526.06;5035998;28;20219;-68
2023/02/12 05:11:39;;;;;;;43.10;26.48;;;;;;;5.69;100.00;102527.84;5035581;28;20200;-68
2023/02/12 05:14:06;;;;;;;44.55;27.77;;;;;;;5.72;100.00;102521.63;5035713;28;20207;-68
2023/02/12 05:16:33;;;;;;;41.97;25.80;;;;;;;5.76;100.00;102519.00;5035887;28;20248;-69
2023/02/12 05:18:59;;;;;;;40.25;26.00;;;;;;;5.74;100.00;102520.75;5035653;28;20229;-70
2023/02/12 05:21:26;;;;;;;41.60;26.65;;;;;;;5.85;100.00;102519.06;5036885;28;20232;-69
2023/02/12 05:23:54;;;;;;;38.97;27.90;;;;;;;5.76;100.00;102523.47;5040469;28;20207;-69
2023/02/12 05:26:22;;;;;;;40.17;25.45;;;;;;;5.73;100.00;102518.09;5043646;28;20674;-70
2023/02/12 05:28:48;;;;;;;38.97;26.33;;;;;;;5.75;100.00;102519.91;5043402;28;20225;-70
2023/02/12 05:31:17;;;;;;;45.25;27.42;;;;;;;5.73;100.00;102524.34;5045114;28;20201;-68
2023/02/12 05:33:44;;;;;;;43.95;26.80;;;;;;;5.75;100.00;102519.91;5048858;28;20275;-69
2023/02/12 05:36:13;;;;;;;38.80;25.60;;;;;;;5.72;100.00;102525.22;5047519;28;20213;-70
2023/02/12 05:38:40;;;;;;;40.88;26.45;;;;;;;5.68;100.00;102514.50;5047282;28;20224;-69
2023/02/12 05:41:10;;;;;;;44.00;27.98;;;;;;;5.73;100.00;102527.00;5041277;28;20266;-70
2023/02/12 05:43:36;;;;;;;44.97;27.77;;;;;;;5.74;100.00;102514.53;5036197;28;20216;-69
2023/02/12 05:46:05;;;;;;;41.03;26.60;;;;;;;5.69;100.00;102522.50;5041655;28;20223;-72
2023/02/12 05:48:33;;;;;;;48.38;29.30;;;;;;;5.67;100.00;102523.38;5045748;28;20225;-70
2023/02/12 05:51:04;;;;;;;45.10;26.67;;;;;;;5.73;100.00;102531.47;5051573;28;20223;-70
2023/02/12 05:53:30;;;;;;;41.53;26.27;;;;;;;5.65;100.00;102526.03;5052422;28;20252;-69
2023/02/12 05:56:12;;;;;;;47.30;31.77;;;;;;;5.67;100.00;102534.06;5043767;28;20677;-68
2023/02/12 05:58:39;;;;;;;45.05;26.80;;;;;;;5.68;100.00;102539.44;5035936;28;20231;-69
2023/02/12 06:01:10;;;;;;;42.78;27.65;;;;;;;5.64;100.00;102540.28;5036888;28;20204;-69
2023/02/12 06:03:37;;;;;;;38.67;26.05;;;;;;;5.69;100.00;102532.31;5036568;28;20213;-69
2023/02/12 06:06:04;;;;;;;46.80;28.88;;;;;;;5.75;100.00;102540.41;5036054;28;20208;-69
2023/02/12 06:08:31;;;;;;;45.40;28.02;;;;;;;5.79;100.00;102539.56;5016181;28;20229;-70
2023/02/12 06:11:00;;;;;;;45.83;29.35;;;;;;;5.74;100.00;102534.13;5021410;28;20200;-69
2023/02/12 06:13:28;;;;;;;43.60;27.50;;;;;;;5.72;100.00;102535.94;5034828;28;20258;-69
2023/02/12 06:15:55;;;;;;;43.45;27.85;;;;;;;5.68;100.00;102549.25;5037778;28;20205;-70
2023/02/12 06:18:21;;;;;;;42.47;26.45;;;;;;;5.71;100.00;102539.47;5043104;28;20225;-69
2023/02/12 06:20:48;;;;;;;51.08;28.60;;;;;;;5.78;100.00;102533.28;5043621;28;20276;-69
2023/02/12 06:23:14;;;;;;;43.40;29.77;;;;;;;5.76;100.00;102540.38;5040617;28;20212;-69
2023/02/12 06:25:41;;;;;;;43.42;27.25;;;;;;;5.78;100.00;102548.44;5038463;28;20201;-69
2023/02/12 06:28:07;;;;;;;42.00;27.42;;;;;;;5.80;100.00;102557.38;5036817;28;20221;-70
2023/02/12 06:30:35;;;;;;;45.28;29.52;;;;;;;5.88;100.00;102547.66;5037640;28;20208;-70
2023/02/12 06:33:02;;;;;;;43.95;28.05;;;;;;;5.85;100.00;102551.16;5038585;28;20208;-68
2023/02/12 06:35:28;;;;;;;49.38;29.58;;;;;;;5.88;100.00;102563.69;5036449;28;20200;-70
2023/02/12 06:37:55;;;;;;;44.13;28.45;;;;;;;5.83;100.00;102562.75;5037603;28;20228;-74
2023/02/12 06:40:22;;;;;;;46.63;28.40;;;;;;;5.92;100.00;102575.31;5040737;28;20208;-73
2023/02/12 06:42:57;;;;;;;47.28;30.05;;;;;;;5.92;100.00;102560.13;5040907;28;20227;-74
2023/02/12 06:45:24;;;;;;;61.67;37.75;;;;;;;5.96;100.00;102564.66;5030067;28;20228;-74
2023/02/12 06:47:52;;;;;;;63.45;35.25;;;;;;;5.90;100.00;102571.72;5025020;28;20225;-72
2023/02/12 06:50:19;;;;;;;47.53;31.20;;;;;;;5.90;100.00;102580.66;5042298;28;20191;-72
2023/02/12 06:52:45;;;;;;;46.22;28.42;;;;;;;5.88;100.00;102571.72;5049861;28;20247;-73
2023/02/12 06:55:12;;;;;;;44.45;30.70;;;;;;;5.91;100.00;102578.88;5040971;28;20201;-73
2023/02/12 06:57:38;;;;;;;43.97;28.90;;;;;;;5.95;100.00;102576.25;5036278;28;20232;-74
2023/02/12 07:00:06;;;;;;;58.95;31.92;;;;;;;6.00;100.00;102582.53;5034774;28;20576;-74
2023/02/12 07:02:33;;;;;;;52.55;32.00;;;;;;;6.01;100.00;102583.44;5035116;28;20184;-74
2023/02/12 07:05:01;;;;;;;44.47;29.85;;;;;;;6.04;100.00;102579.00;5034161;28;20201;-74
2023/02/12 07:07:27;;;;;;;47.30;30.80;;;;;;;6.04;100.00;102579.00;5047423;22;20984;-74
2023/02/12 07:09:54;;;;;;;50.25;32.33;;;;;;;6.05;100.00;102579.91;5055774;28;20208;-73
2023/02/12 07:12:20;;;;;;;43.35;28.80;;;;;;;6.14;100.00;102585.31;5058255;28;20230;-73
2023/02/12 07:14:47;;;;;;;48.30;31.15;;;;;;;6.16;100.00;102578.22;5074008;28;20222;-73
2023/02/12 07:17:13;;;;;;;47.78;32.97;;;;;;;6.18;100.00;102589.81;5072379;28;20217;-72
2023/02/12 07:19:40;;;;;;;48.40;31.60;;;;;;;6.19;100.00;102588.94;5063582;28;20184;-73
2023/02/12 07:22:08;;;;;;;51.55;33.10;;;;;;;6.22;100.00;102582.72;5076191;28;20188;-75
2023/02/12 07:24:34;;;;;;;53.40;33.15;;;;;;;6.22;100.00;102590.75;5042036;28;20197;-74
2023/02/12 07:27:01;;;;;;;53.30;32.70;;;;;;;6.24;100.00;102597.00;5018844;28;20201;-74
2023/02/12 07:29:27;;;;;;;47.78;30.73;;;;;;;6.23;100.00;102596.09;5020781;28;20212;-73
2023/02/12 07:31:54;;;;;;;50.80;33.95;;;;;;;6.25;100.00;102598.78;5034396;28;20211;-72
2023/02/12 07:34:20;;;;;;;49.03;32.03;;;;;;;6.31;100.00;102603.28;5031162;28;20201;-73
2023/02/12 07:36:47;;;;;;;58.40;37.20;;;;;;;6.32;100.00;102597.06;5043385;28;20580;-73
2023/02/12 07:39:15;;;;;;;52.90;32.63;;;;;;;6.33;100.00;102602.44;5017891;28;20233;-72
2023/02/12 07:41:41;;;;;;;50.08;32.42;;;;;;;6.36;100.00;102604.25;5013545;28;20311;-73
2023/02/12 07:44:10;;;;;;;47.58;32.42;;;;;;;6.30;100.00;102604.19;5013926;28;20205;-73
2023/02/12 07:46:39;;;;;;;52.13;34.22;;;;;;;6.37;100.00;102604.22;5012937;28;20220;-73
2023/02/12 07:49:09;;;;;;;47.83;30.58;;;;;;;6.45;100.00;102613.22;5013516;28;20256;-74
2023/02/12 07:51:36;;;;;;;46.13;29.73;;;;;;;6.43;100.00;102604.28;5014548;28;20227;-72
2023/02/12 07:54:04;;;;;;;65.30;41.03;;;;;;;6.47;100.00;102616.81;5014881;28;20205;-72
2023/02/12 07:56:35;;;;;;;70.03;42.35;;;;;;;6.47;100.00;102615.91;5032231;28;20211;-73
2023/02/12 07:59:03;;;;;;;54.50;35.90;;;;;;;6.54;100.00;102615.06;5031692;28;20224;-73
2023/02/12 08:01:32;;;;;;;54.40;35.63;;;;;;;6.61;100.00;102610.66;5017989;28;20197;-74
2023/02/12 08:04:00;;;;;;;55.40;34.30;;;;;;;6.71;100.00;102616.94;5012597;28;20206;-71
2023/02/12 08:06:29;;;;;;;49.28;32.55;;;;;;;6.70;100.00;102617.84;5012808;28;20204;-73
2023/02/12 08:08:57;;;;;;;51.67;34.88;;;;;;;6.75;100.00;102625.00;5011549;28;20241;-72
2023/02/12 08:11:25;;;;;;;49.90;33.25;;;;;;;6.76;100.00;102618.78;5012097;28;20281;-74
2023/02/12 08:13:53;;;;;;;47.67;31.65;;;;;;;6.82;100.00;102620.59;5012406;28;20233;-72
2023/02/12 08:16:22;;;;;;;46.08;31.45;;;;;;;6.93;100.00;102620.66;5013255;28;20218;-72
2023/02/12 08:18:49;;;;;;;58.20;37.50;;;;;;;6.98;100.00;102619.78;5014680;28;20230;-73
2023/02/12 08:21:18;;;;;;;79.70;50.55;;;;;;;7.05;100.00;102623.38;5033346;28;20204;-73
2023/02/12 08:23:45;;;;;;;62.30;42.25;;;;;;;7.02;100.00;102628.72;5032512;28;20201;-73
2023/02/12 08:26:14;;;;;;;60.35;38.90;;;;;;;7.08;100.00;102632.34;5016498;28;20291;-73
2023/02/12 08:28:42;;;;;;;51.88;34.45;;;;;;;7.11;100.00;102626.09;5011850;28;20591;-73
2023/02/12 08:31:12;;;;;;;53.67;36.25;;;;;;;7.19;100.00;102629.72;5012251;28;20682;-74
2023/02/12 08:33:39;;;;;;;56.47;35.38;;;;;;;7.30;100.00;102635.09;5013318;28;20194;-73
2023/02/12 08:36:08;;;;;;;63.88;36.42;;;;;;;7.38;100.00;102632.47;5012422;28;20197;-73
2023/02/12 08:38:36;;;;;;;54.65;34.22;;;;;;;7.42;100.00;102631.59;5017206;28;20225;-74
2023/02/12 08:41:03;;;;;;;54.05;34.55;;;;;;;7.46;100.00;102633.38;5033307;28;20206;-72
2023/02/12 08:43:30;;;;;;;103.70;63.15;;;;;;;7.55;100.00;102628.03;5037492;28;20210;-72
2023/02/12 08:46:01;;;;;;;76.32;51.38;;;;;;;7.75;100.00;102632.56;5032299;28;20213;-72
2023/02/12 08:48:29;;;;;;;69.25;43.58;;;;;;;7.81;100.00;102630.78;5027365;28;20251;-73
2023/02/12 08:50:56;;;;;;;60.22;36.03;;;;;;;7.85;100.00;102637.94;5011837;28;20208;-75
2023/02/12 08:53:22;;;;;;;60.33;36.65;;;;;;;7.84;100.00;102636.13;5019632;28;20190;-73
2023/02/12 08:55:50;;;;;;;60.03;36.30;;;;;;;7.93;100.00;102641.50;5022608;28;20216;-74
2023/02/12 08:58:16;;;;;;;56.63;36.40;;;;;;;8.02;100.00;102635.25;5023474;28;20236;-72
2023/02/12 09:00:43;;;;;;;49.85;33.20;;;;;;;8.12;100.00;102646.94;5015012;28;20205;-74
2023/02/12 09:03:09;;;;;;;48.15;31.77;;;;;;;8.24;100.00;102646.03;5031431;28;20212;-77
2023/02/12 09:05:40;;;;;;;50.53;32.88;;;;;;;8.28;100.00;102637.09;5032568;28;20210;-73
2023/02/12 09:08:06;;;;;;;55.70;34.60;;;;;;;8.32;100.00;102642.44;5014525;28;20707;-77
2023/02/12 09:10:33;;;;;;;61.33;38.80;;;;;;;8.38;100.00;102640.66;5016784;28;20202;-75
2023/02/12 09:13:00;;;;;;;56.25;35.90;;;;;;;8.39;100.00;102640.66;5015050;28;20289;-75
2023/02/12 09:15:26;;;;;;;53.00;34.42;;;;;;;8.48;100.00;102647.81;5015673;28;20652;-74
2023/02/12 09:17:53;;;;;;;57.13;35.10;;;;;;;8.62;100.00;102647.84;5015079;28;20601;-73
2023/02/12 09:20:19;;;;;;;53.10;34.60;;;;;;;8.83;100.00;102645.09;5015508;28;20205;-73
2023/02/12 09:22:47;;;;;;;60.10;35.30;;;;;;;8.99;100.00;102645.94;5016269;28;20549;-74
2023/02/12 09:25:14;;;;;;;61.25;36.10;;;;;;;9.19;100.00;102651.25;5021340;28;20335;-72
2023/02/12 09:27:40;;;;;;;57.53;35.65;;;;;;;9.30;100.00;102643.16;5015996;28;20732;-74
2023/02/12 09:30:08;;;;;;;57.65;35.78;;;;;;;9.38;100.00;102650.28;5017585;28;20206;-74
2023/02/12 09:32:35;;;;;;;54.65;35.50;;;;;;;9.38;100.00;102647.59;5035747;28;20196;-73
2023/02/12 09:35:01;;;;;;;54.15;35.53;;;;;;;9.47;100.00;102652.03;5055386;28;20670;-73
2023/02/12 09:37:28;;;;;;;54.88;33.55;;;;;;;9.50;100.00;102648.44;5016829;28;20229;-74
2023/02/12 09:39:55;;;;;;;51.22;33.97;;;;;;;9.65;100.00;102650.16;5015589;28;20784;-73
2023/02/12 09:42:38;;;;;;;57.53;34.20;;;;;;;9.74;100.00;102642.91;5014698;28;20199;-73
2023/02/12 09:45:13;;;;;;;52.60;33.33;;;;;;;9.77;100.00;102653.66;5014422;28;20220;-73
2023/02/12 09:47:48;;;;;;;53.03;33.35;;;;;;;9.76;100.00;102645.59;5013871;28;20664;-73
2023/02/12 09:50:31;;;;;;;60.95;37.72;;;;;;;9.80;100.00;102644.69;5039455;28;20678;-74
2023/02/12 09:52:58;;;;;;;61.55;36.65;;;;;;;9.84;100.00;102651.84;5033711;28;20536;-73
2023/02/12 09:55:30;;;;;;;57.20;36.28;;;;;;;9.91;100.00;102644.63;5033241;28;20297;-74
2023/02/12 09:57:57;;;;;;;62.38;37.55;;;;;;;10.03;100.00;102652.59;5028330;28;20226;-73
2023/02/12 10:00:29;;;;;;;53.67;36.17;;;;;;;10.13;100.00;102643.56;5022187;28;20201;-73
2023/02/12 10:02:57;;;;;;;53.42;33.42;;;;;;;10.22;100.00;102646.16;5013997;28;20199;-74
2023/02/12 10:05:28;;;;;;;49.13;32.38;;;;;;;10.28;100.00;102647.00;5013050;28;20532;-73
2023/02/12 10:08:21;;;;;;;46.05;31.73;;;;;;;10.23;100.00;102644.34;5016110;28;20310;-72
2023/02/12 10:10:53;;;;;;;50.35;32.22;;;;;;;10.15;100.00;102641.75;5015648;28;20202;-74
2023/02/12 10:13:34;;;;;;;51.75;32.05;;;;;;;10.24;100.00;102643.44;5017679;28;20191;-74
2023/02/12 10:16:09;;;;;;;53.83;32.35;;;;;;;10.40;100.00;102639.78;5024608;28;20222;-75
2023/02/12 10:18:51;;;;;;;87.22;54.75;;;;;;;10.51;100.00;102650.41;5017163;28;20237;-72
2023/02/12 10:21:34;;;;;;;98.35;56.13;;;;;;;10.38;100.00;102646.97;5017896;28;20585;-74
2023/02/12 10:24:17;;;;;;;59.35;34.88;;;;;;;10.37;100.00;102646.97;5017062;28;20202;-74
2023/02/12 10:26:48;;;;;;;59.50;33.25;;;;;;;10.26;100.00;102660.47;5043819;28;20205;-72
2023/02/12 10:29:18;;;;;;;55.28;31.50;;;;;;;9.98;100.00;102662.50;5016424;28;20704;-70
